Time;durP1;ratioP1;P1;durP2;ratioP2;P2;SDS_P1;SDS_P2;PMS_P1;PMS_P2;Temp;Humidity;BMP_temperature;BMP_pressure;BME280_temperature;BME280_humidity;BME280_pressure;Samples;Min_cycle;Max_cycle;Signal;HPM_P1;HPM_P2
2022/07/04 00:01:17;;;;;;;8.20;4.25;;;;;;;28.00;28.32;99219.22;5074255;28;20070;-72
2022/07/04 00:03:43;;;;;;;10.13;4.30;;;;;;;27.98;28.38;99219.53;5040358;28;20455;-72
2022/07/04 00:06:08;;;;;;;39.15;4.78;;;;;;;28.02;28.52;99210.78;5056743;28;20504;-74
2022/07/04 00:08:34;;;;;;;11.55;4.88;;;;;;;27.97;28.13;99211.59;5074127;28;20036;-74
2022/07/04 00:11:00;;;;;;;11.18;4.22;;;;;;;27.97;28.11;99219.78;5057383;28;20415;-74
2022/07/04 00:13:26;;;;;;;9.50;3.75;;;;;;;27.97;27.89;99220.63;5057771;28;20396;-75
2022/07/04 00:15:52;;;;;;;13.00;4.05;;;;;;;27.93;27.57;99211.38;5057660;28;20496;-74
2022/07/04 00:18:17;;;;;;;9.48;3.97;;;;;;;27.91;27.48;99207.28;5057760;28;21015;-75
2022/07/04 00:20:43;;;;;;;7.60;4.20;;;;;;;27.84;27.69;99213.03;5040737;28;20040;-74
2022/07/04 00:23:09;;;;;;;8.50;4.20;;;;;;;27.85;27.84;99216.56;5042313;28;20047;-72
2022/07/04 00:25:35;;;;;;;8.90;4.82;;;;;;;27.84;28.47;99213.03;5053098;28;20040;-72
2022/07/04 00:28:01;;;;;;;10.27;4.75;;;;;;;27.78;27.81;99210.59;5071588;28;20043;-72
2022/07/04 00:30:27;;;;;;;8.57;4.95;;;;;;;27.82;28.07;99208.94;5035052;28;20052;-72
2022/07/04 00:32:53;;;;;;;16.10;4.25;;;;;;;27.73;28.19;99210.59;5048790;28;20047;-73
2022/07/04 00:35:19;;;;;;;13.35;4.35;;;;;;;27.76;28.10;99208.16;5023101;28;20579;-73
2022/07/04 00:37:45;;;;;;;12.40;4.40;;;;;;;27.69;28.18;99206.81;5056408;28;20040;-72
2022/07/04 00:40:11;;;;;;;12.45;4.95;;;;;;;27.71;28.31;99210.88;5040532;28;20044;-73
2022/07/04 00:42:37;;;;;;;6.25;3.80;;;;;;;27.71;28.18;99218.25;5039661;28;20117;-72
2022/07/04 00:45:03;;;;;;;14.88;4.65;;;;;;;27.70;28.37;99216.63;5040134;28;20492;-73
2022/07/04 00:47:29;;;;;;;15.43;4.50;;;;;;;27.70;28.08;99213.91;5056725;28;20040;-73
2022/07/04 00:49:55;;;;;;;10.93;4.03;;;;;;;27.62;28.68;99215.28;5073681;28;20522;-73
2022/07/04 00:52:28;;;;;;;10.88;3.80;;;;;;;27.56;28.39;99213.69;5039892;28;20093;-73
2022/07/04 00:54:54;;;;;;;9.38;4.47;;;;;;;27.53;28.81;99216.13;5056927;28;20044;-74
2022/07/04 00:57:20;;;;;;;7.05;4.10;;;;;;;27.48;28.64;99221.59;5039969;28;20046;-73
2022/07/04 00:59:46;;;;;;;6.45;3.30;;;;;;;27.49;28.51;99217.81;5023437;28;20051;-73
2022/07/04 01:02:12;;;;;;;6.35;3.70;;;;;;;27.41;28.67;99216.47;5039398;28;20067;-73
2022/07/04 01:04:37;;;;;;;8.02;3.92;;;;;;;27.43;28.92;99235.28;5039634;28;20048;-72
2022/07/04 01:07:05;;;;;;;8.98;4.03;;;;;;;27.50;28.73;99231.16;5022805;28;20051;-73
2022/07/04 01:09:30;;;;;;;9.27;3.70;;;;;;;27.32;28.68;99226.31;5007257;28;20051;-73
2022/07/04 01:11:58;;;;;;;8.77;3.60;;;;;;;27.37;28.42;99225.47;5056336;28;20464;-73
2022/07/04 01:14:25;;;;;;;9.18;3.97;;;;;;;27.35;28.81;99235.84;5091122;28;20108;-73
2022/07/04 01:16:51;;;;;;;7.40;3.67;;;;;;;27.37;28.92;99229.00;5055972;28;20502;-73
2022/07/04 01:19:17;;;;;;;6.78;3.80;;;;;;;27.35;28.59;99233.09;5055942;28;20051;-72
2022/07/04 01:21:42;;;;;;;6.07;4.03;;;;;;;27.36;29.03;99234.72;5023121;28;20048;-73
2022/07/04 01:24:12;;;;;;;7.55;5.18;;;;;;;27.51;28.91;99240.16;5022850;28;20408;-73
2022/07/04 01:26:40;;;;;;;8.48;4.07;;;;;;;27.32;29.10;99231.75;5056227;28;20495;-72
2022/07/04 01:29:06;;;;;;;8.35;3.67;;;;;;;27.33;29.30;99238.00;5072557;28;20044;-72
2022/07/04 01:31:32;;;;;;;7.57;3.58;;;;;;;27.29;29.06;99236.94;5022648;28;20131;-74
2022/07/04 01:33:58;;;;;;;9.88;4.28;;;;;;;27.31;29.42;99242.91;5022709;28;20051;-73
2022/07/04 01:36:24;;;;;;;9.75;3.70;;;;;;;27.26;29.34;99230.13;5039242;28;20507;-73
2022/07/04 01:38:50;;;;;;;9.57;3.78;;;;;;;27.25;29.55;99235.81;5055624;28;20043;-73
2022/07/04 01:41:16;;;;;;;8.48;3.90;;;;;;;27.27;29.19;99239.94;5022675;28;20036;-73
2022/07/04 01:43:42;;;;;;;6.05;4.07;;;;;;;27.27;29.43;99241.84;5038713;28;20499;-74
2022/07/04 01:46:07;;;;;;;12.45;4.68;;;;;;;27.29;29.66;99243.19;5039002;28;20044;-74
2022/07/04 01:48:33;;;;;;;10.93;4.72;;;;;;;27.32;29.64;99244.56;5055566;28;20039;-73
2022/07/04 01:50:59;;;;;;;10.05;4.20;;;;;;;27.24;29.85;99250.53;5055584;28;20457;-72
2022/07/04 01:53:25;;;;;;;5.82;4.15;;;;;;;27.24;30.27;99256.00;5022965;28;20044;-73
2022/07/04 01:55:51;;;;;;;8.40;4.38;;;;;;;27.25;30.04;99249.44;5055342;28;20055;-72
2022/07/04 01:58:17;;;;;;;7.65;3.60;;;;;;;27.29;30.23;99248.66;5022309;28;20100;-71
2022/07/04 02:03:27;;;;;;;7.95;4.00;;;;;;;27.31;29.87;99256.56;5041395;28;20040;-71
2022/07/04 02:05:52;;;;;;;7.13;3.97;;;;;;;27.24;30.05;99228.72;5071674;28;20359;-73
2022/07/04 02:08:18;;;;;;;7.55;3.92;;;;;;;27.32;29.84;99247.28;5038589;28;20084;-72
2022/07/04 02:10:45;;;;;;;10.25;3.78;;;;;;;27.33;29.73;99248.91;5038811;28;20144;-72
2022/07/04 02:13:10;;;;;;;6.32;3.72;;;;;;;27.36;29.96;99249.19;5071823;28;20572;-73
2022/07/04 02:15:41;;;;;;;6.15;3.70;;;;;;;27.57;29.71;99260.88;5038478;28;20043;-73
2022/07/04 02:18:10;;;;;;;8.98;3.65;;;;;;;27.46;29.90;99249.16;5038608;28;20060;-72
2022/07/04 02:20:36;;;;;;;9.07;4.18;;;;;;;27.45;30.20;99257.63;5038821;28;20617;-72
2022/07/04 02:23:03;;;;;;;11.27;3.90;;;;;;;27.49;29.97;99256.00;5090007;28;20048;-72
2022/07/04 02:25:31;;;;;;;10.65;3.83;;;;;;;27.55;30.04;99257.59;5071466;28;20040;-72
2022/07/04 02:27:57;;;;;;;14.30;4.28;;;;;;;27.41;30.31;99253.81;5054894;28;20412;-73
2022/07/04 02:30:23;;;;;;;7.45;4.20;;;;;;;27.50;30.27;99263.06;5038560;28;20123;-73
2022/07/04 02:32:49;;;;;;;7.95;3.60;;;;;;;27.50;30.26;99263.06;5054849;28;20075;-73
2022/07/04 02:35:15;;;;;;;8.30;3.72;;;;;;;27.51;30.65;99264.69;5021620;28;20067;-73
2022/07/04 02:37:41;;;;;;;9.80;3.88;;;;;;;27.64;30.79;99273.16;5071721;28;20143;-73
2022/07/04 02:40:07;;;;;;;12.63;4.13;;;;;;;27.69;30.95;99269.59;5038352;28;20380;-73
2022/07/04 02:42:34;;;;;;;9.35;3.78;;;;;;;27.79;30.79;99275.00;5071741;28;20703;-72
2022/07/04 02:44:59;;;;;;;7.57;4.53;;;;;;;27.69;30.88;99273.09;5037940;28;20077;-73
2022/07/04 02:47:26;;;;;;;17.17;4.63;;;;;;;27.72;31.27;99258.91;5055021;28;20043;-73
2022/07/04 02:49:53;;;;;;;10.07;4.85;;;;;;;27.84;31.04;99273.06;5071558;28;20043;-72
2022/07/04 02:52:18;;;;;;;14.52;4.78;;;;;;;27.92;31.51;99272.50;5038437;28;20068;-72
2022/07/04 02:54:46;;;;;;;14.55;5.10;;;;;;;27.99;30.83;99275.78;5071531;28;20079;-72
2022/07/04 02:57:12;;;;;;;10.90;4.97;;;;;;;28.09;31.06;99268.63;5054654;28;20040;-73
2022/07/04 02:59:38;;;;;;;12.95;4.63;;;;;;;28.10;30.66;99275.72;5022139;28;20051;-73
2022/07/04 03:02:05;;;;;;;9.48;5.35;;;;;;;28.20;30.66;99271.00;5084532;28;20427;-74
2022/07/04 03:04:30;;;;;;;10.00;4.57;;;;;;;28.19;30.96;99263.94;5054590;28;20059;-73
2022/07/04 03:06:56;;;;;;;10.55;5.07;;;;;;;28.23;30.48;99262.25;5022029;28;20044;-72
2022/07/04 03:09:22;;;;;;;13.63;5.03;;;;;;;28.27;30.82;99265.25;5054523;28;20073;-73
2022/07/04 03:11:48;;;;;;;12.40;4.72;;;;;;;28.37;30.72;99274.19;5057615;28;20109;-72
2022/07/04 03:14:14;;;;;;;13.77;4.95;;;;;;;28.42;30.44;99260.53;5055299;28;20047;-72
2022/07/04 03:16:40;;;;;;;11.20;5.30;;;;;;;28.44;30.63;99280.19;5055141;28;20214;-72
2022/07/04 03:19:06;;;;;;;14.82;6.68;;;;;;;28.52;30.64;99279.63;5072129;28;20040;-73
2022/07/04 03:21:33;;;;;;;15.52;5.28;;;;;;;28.59;30.57;99279.28;5067401;28;20036;-73
2022/07/04 03:23:59;;;;;;;12.70;5.45;;;;;;;28.65;30.52;99278.97;5075466;28;20043;-73
2022/07/04 03:26:26;;;;;;;9.73;4.57;;;;;;;28.86;29.89;99275.00;5058958;28;20046;-73
2022/07/04 03:28:52;;;;;;;9.98;4.70;;;;;;;28.79;30.01;99279.97;5075464;28;20082;-73
2022/07/04 03:31:18;;;;;;;7.93;4.80;;;;;;;28.79;29.53;99277.25;5071325;28;20051;-72
2022/07/04 03:33:43;;;;;;;11.07;5.28;;;;;;;28.83;29.95;99275.56;5055360;28;20078;-73
2022/07/04 03:36:12;;;;;;;9.70;4.95;;;;;;;28.93;29.75;99282.88;5023038;28;20138;-74
2022/07/04 03:38:38;;;;;;;10.20;4.90;;;;;;;29.02;29.69;99281.16;5055883;28;20139;-73
2022/07/04 03:41:04;;;;;;;11.85;5.35;;;;;;;29.13;29.65;99285.47;5046999;28;20050;-74
2022/07/04 03:43:30;;;;;;;12.93;5.88;;;;;;;29.16;29.46;99284.91;5058965;28;20053;-73
2022/07/04 03:45:56;;;;;;;14.95;6.53;;;;;;;29.33;29.31;99285.28;5050939;28;20043;-72
2022/07/04 03:48:22;;;;;;;18.23;5.50;;;;;;;29.42;29.37;99286.28;5051524;28;20040;-72
2022/07/04 03:50:47;;;;;;;17.23;7.70;;;;;;;29.51;29.48;99279.91;5065884;28;20695;-72
2022/07/04 03:53:14;;;;;;;13.43;5.93;;;;;;;29.53;29.75;99287.81;5052540;28;20071;-72
2022/07/04 03:55:40;;;;;;;13.57;5.50;;;;;;;30.04;29.28;99290.84;5068741;28;20044;-74
2022/07/04 03:58:06;;;;;;;14.18;5.25;;;;;;;30.76;28.09;99294.00;5057262;28;20543;-74
2022/07/04 04:00:32;;;;;;;16.45;5.60;;;;;;;31.34;27.05;99297.16;5057006;28;20097;-73
2022/07/04 04:02:58;;;;;;;10.25;5.88;;;;;;;31.70;26.68;99298.16;5067495;28;20040;-74
2022/07/04 04:05:27;;;;;;;20.20;6.45;;;;;;;32.18;26.06;99301.34;5040688;28;20048;-73
2022/07/04 04:07:57;;;;;;;14.23;5.80;;;;;;;32.55;25.12;99301.91;5085849;28;20499;-73
2022/07/04 04:10:24;;;;;;;15.68;6.18;;;;;;;32.82;25.10;99309.25;5065525;28;20040;-70
2022/07/04 04:12:50;;;;;;;13.82;5.80;;;;;;;33.07;24.82;99305.13;5063541;28;20059;-72
2022/07/04 04:15:16;;;;;;;14.32;5.63;;;;;;;33.19;24.63;99302.59;5066343;28;20075;-71
2022/07/04 04:17:42;;;;;;;19.67;5.97;;;;;;;33.25;24.27;99310.44;5065909;28;20067;-71
2022/07/04 04:20:08;;;;;;;17.00;6.18;;;;;;;33.45;24.07;99307.19;5081420;28;21534;-73
2022/07/04 04:22:34;;;;;;;13.00;6.10;;;;;;;33.55;23.54;99306.13;5080629;28;20525;-71
2022/07/04 04:25:00;;;;;;;20.67;6.10;;;;;;;33.66;23.81;99293.69;5057520;28;20068;-71
2022/07/04 04:27:26;;;;;;;23.02;6.43;;;;;;;33.98;23.31;99316.22;5074856;28;20523;-72
2022/07/04 04:29:52;;;;;;;16.95;6.70;;;;;;;33.96;23.50;99301.13;5040971;28;20047;-73
2022/07/04 04:32:18;;;;;;;18.90;6.78;;;;;;;34.06;23.60;99306.34;5073793;28;20039;-74
2022/07/04 04:34:44;;;;;;;18.20;6.80;;;;;;;34.17;23.26;99303.00;5074701;28;20070;-73
2022/07/04 04:37:09;;;;;;;15.45;6.03;;;;;;;34.27;23.48;99310.16;5054015;28;20066;-77
2022/07/04 04:39:35;;;;;;;14.45;6.25;;;;;;;34.11;23.92;99300.69;5072842;28;20082;-74
2022/07/04 04:42:01;;;;;;;12.90;6.28;;;;;;;34.04;23.96;99303.91;5056417;28;20134;-74
2022/07/04 04:44:27;;;;;;;19.00;5.90;;;;;;;33.99;24.18;99312.34;5056320;28;20059;-73
2022/07/04 04:46:52;;;;;;;18.60;5.60;;;;;;;34.07;24.03;99310.75;5056050;28;20533;-74
2022/07/04 04:49:18;;;;;;;13.52;5.65;;;;;;;34.07;24.50;99300.50;5072371;28;20047;-74
2022/07/04 04:51:44;;;;;;;17.27;6.13;;;;;;;34.12;24.07;99307.84;5071785;28;20093;-73
2022/07/04 04:54:10;;;;;;;14.30;5.90;;;;;;;34.14;24.25;99305.56;5055857;28;20048;-72
2022/07/04 04:56:36;;;;;;;19.35;5.88;;;;;;;34.21;24.48;99311.44;5089410;28;20078;-72
2022/07/04 04:59:02;;;;;;;14.68;6.18;;;;;;;34.30;24.38;99306.75;5084438;28;20181;-73
2022/07/04 05:01:28;;;;;;;15.63;6.13;;;;;;;34.31;23.74;99313.88;5054447;28;20051;-72
2022/07/04 05:03:53;;;;;;;15.43;5.63;;;;;;;34.44;23.60;99312.97;5062525;28;20481;-72
2022/07/04 05:06:19;;;;;;;12.50;5.70;;;;;;;34.51;23.55;99321.59;5061442;28;20101;-72
2022/07/04 05:08:45;;;;;;;12.40;5.60;;;;;;;34.62;23.73;99322.91;5079809;28;20075;-72
2022/07/04 05:11:11;;;;;;;10.32;5.65;;;;;;;34.53;23.56;99318.50;5053100;28;20531;-75
2022/07/04 05:13:37;;;;;;;17.83;6.70;;;;;;;34.61;23.59;99317.69;5071950;28;20047;-76
2022/07/04 05:16:03;;;;;;;17.63;6.32;;;;;;;34.66;23.49;99303.75;5056147;28;20959;-76
2022/07/04 05:18:29;;;;;;;12.15;5.85;;;;;;;34.64;23.55;99300.50;5072300;28;20043;-75
2022/07/04 05:20:54;;;;;;;16.17;6.18;;;;;;;34.79;23.42;99311.06;5072381;28;20044;-73
2022/07/04 05:23:20;;;;;;;14.68;6.05;;;;;;;34.75;23.18;99280.53;5072501;28;20048;-73
2022/07/04 05:25:47;;;;;;;15.35;5.57;;;;;;;34.98;22.93;99301.34;5056332;28;20051;-72
2022/07/04 05:28:13;;;;;;;15.52;5.43;;;;;;;35.00;22.83;99312.88;5090522;28;20040;-74
2022/07/04 05:30:39;;;;;;;12.00;5.47;;;;;;;35.00;22.75;99301.00;5073786;28;20100;-74
2022/07/04 05:33:05;;;;;;;17.02;5.35;;;;;;;35.15;22.67;99312.38;5056090;28;20068;-74
2022/07/04 05:35:31;;;;;;;9.90;4.68;;;;;;;35.18;22.79;99311.72;5072133;28;20504;-71
2022/07/04 05:37:57;;;;;;;8.57;4.65;;;;;;;35.34;22.75;99314.78;5074764;28;20035;-74
2022/07/04 05:40:23;;;;;;;7.38;4.93;;;;;;;35.40;22.34;99325.34;5082629;28;20047;-75
2022/07/04 05:42:49;;;;;;;11.10;5.00;;;;;;;35.65;21.97;99307.91;5084511;28;20043;-74
2022/07/04 05:45:15;;;;;;;10.18;4.63;;;;;;;35.80;22.02;99325.09;5085975;28;20422;-76
2022/07/04 05:47:41;;;;;;;10.80;4.57;;;;;;;35.77;21.73;99317.47;5069792;28;20039;-76
2022/07/04 05:50:09;;;;;;;15.68;5.18;;;;;;;35.85;21.96;99314.69;5082842;28;20053;-74
2022/07/04 05:52:35;;;;;;;9.98;5.15;;;;;;;35.59;22.08;99317.53;5115295;28;20487;-73
2022/07/04 05:55:01;;;;;;;10.30;4.78;;;;;;;35.32;22.28;99317.88;5082198;28;20090;-74
2022/07/04 05:57:29;;;;;;;9.75;4.80;;;;;;;35.13;22.24;99319.38;5062153;28;20044;-75
2022/07/04 05:59:54;;;;;;;8.27;4.78;;;;;;;35.01;22.48;99308.97;5083400;28;20209;-74
2022/07/04 06:02:20;;;;;;;12.52;4.55;;;;;;;34.94;22.40;99311.41;5067101;28;20058;-74
2022/07/04 06:04:46;;;;;;;9.95;5.15;;;;;;;34.83;22.38;99312.03;5050742;28;20130;-75
2022/07/04 06:07:12;;;;;;;12.77;4.82;;;;;;;34.81;22.82;99317.91;5101164;28;20107;-73
2022/07/04 06:09:38;;;;;;;8.60;4.28;;;;;;;34.78;22.10;99313.00;5092471;28;20135;-74
2022/07/04 06:12:05;;;;;;;6.93;4.00;;;;;;;34.84;22.57;99305.38;5041733;28;20517;-74
2022/07/04 06:14:31;;;;;;;13.15;4.45;;;;;;;34.79;22.72;99311.06;5042606;28;20052;-74
2022/07/04 06:16:57;;;;;;;8.23;4.78;;;;;;;34.81;22.37;99317.91;5092668;28;20411;-74
2022/07/04 06:19:22;;;;;;;7.13;5.30;;;;;;;34.74;22.13;99298.22;5075141;28;20609;-74
2022/07/04 06:21:48;;;;;;;14.63;4.40;;;;;;;34.84;22.55;99308.13;5075955;28;20043;-76
2022/07/04 06:24:15;;;;;;;17.50;5.05;;;;;;;34.94;22.26;99321.63;5076060;28;20050;-75
2022/07/04 06:26:42;;;;;;;8.90;4.72;;;;;;;34.98;21.58;99306.84;5075791;28;20047;-73
2022/07/04 06:29:08;;;;;;;12.05;4.35;;;;;;;35.14;21.56;99310.75;5075127;28;20526;-73
2022/07/04 06:31:34;;;;;;;10.80;4.47;;;;;;;35.20;21.67;99314.97;5091909;28;20039;-73
2022/07/04 06:36:45;;;;;;;8.43;3.72;;;;;;;35.44;21.28;99318.03;5091158;28;20040;-73
2022/07/04 06:39:11;;;;;;;9.52;4.38;;;;;;;35.42;21.58;99327.78;5075416;28;20511;-73
2022/07/04 06:41:37;;;;;;;10.77;4.40;;;;;;;35.51;21.46;99317.53;5058645;28;20039;-73
2022/07/04 06:44:03;;;;;;;8.48;4.18;;;;;;;35.60;21.16;99323.84;5092051;28;20388;-73
2022/07/04 06:46:30;;;;;;;14.80;4.25;;;;;;;35.69;21.05;99317.16;5108885;28;20120;-73
2022/07/04 06:48:56;;;;;;;8.35;4.03;;;;;;;35.65;20.76;99296.03;5074283;28;20105;-74
2022/07/04 06:51:22;;;;;;;11.50;4.90;;;;;;;35.89;20.60;99310.09;5074452;28;20517;-74
2022/07/04 06:53:48;;;;;;;8.55;4.20;;;;;;;35.95;20.63;99313.50;5091765;28;20043;-74
2022/07/04 06:56:14;;;;;;;5.88;3.65;;;;;;;36.09;20.59;99312.13;5074895;28;20415;-73
2022/07/04 06:58:40;;;;;;;7.05;3.80;;;;;;;36.16;19.85;99306.91;5043024;28;20067;-74
2022/07/04 07:01:06;;;;;;;8.95;3.72;;;;;;;36.36;19.18;99319.16;5075291;28;20571;-74
2022/07/04 07:03:31;;;;;;;8.02;3.65;;;;;;;36.62;19.15;99311.50;5075988;28;20457;-74
2022/07/04 07:05:57;;;;;;;4.88;3.30;;;;;;;36.82;19.02;99306.00;5074988;28;20071;-74
2022/07/04 07:08:23;;;;;;;6.80;3.80;;;;;;;37.05;18.83;99303.69;5075107;28;20120;-73
2022/07/04 07:10:50;;;;;;;5.95;3.60;;;;;;;37.29;18.86;99283.63;5066126;28;20523;-74
2022/07/04 07:13:16;;;;;;;7.10;4.05;;;;;;;37.74;18.01;99304.63;5096420;28;20035;-76
2022/07/04 07:15:42;;;;;;;8.00;3.58;;;;;;;38.15;17.44;99310.00;5085962;28;20140;-74
2022/07/04 07:18:08;;;;;;;9.27;4.05;;;;;;;38.34;17.06;99301.91;5074098;28;20048;-75
2022/07/04 07:20:33;;;;;;;11.77;3.50;;;;;;;38.65;17.23;99306.84;5092572;28;20039;-74
2022/07/04 07:23:03;;;;;;;7.63;3.80;;;;;;;39.22;16.57;99303.78;5076723;28;20108;-76
2022/07/04 07:25:29;;;;;;;7.25;3.80;;;;;;;39.68;15.83;99308.63;5056104;28;20044;-76
2022/07/04 07:27:55;;;;;;;6.38;3.97;;;;;;;40.06;15.47;99284.59;5075086;28;20044;-75
2022/07/04 07:30:21;;;;;;;8.52;3.67;;;;;;;40.73;15.07;99310.47;5075038;28;20269;-75
2022/07/04 07:32:47;;;;;;;8.00;3.70;;;;;;;41.45;14.44;99307.59;5041854;28;20051;-74
2022/07/04 07:35:12;;;;;;;7.75;3.80;;;;;;;42.22;13.79;99307.38;5058349;28;20062;-74
2022/07/04 07:37:38;;;;;;;9.57;3.85;;;;;;;43.02;13.08;99304.97;5058324;28;20048;-75
2022/07/04 07:40:05;;;;;;;10.15;3.55;;;;;;;43.45;12.74;99309.88;5058912;28;20496;-75
2022/07/04 07:42:30;;;;;;;16.02;3.25;;;;;;;43.83;12.02;99297.47;5058177;28;20078;-74
2022/07/04 07:44:59;;;;;;;10.95;3.60;;;;;;;44.01;12.45;99306.88;5080161;28;20046;-74
2022/07/04 07:47:24;;;;;;;8.93;3.45;;;;;;;44.21;12.21;99306.22;5081058;28;20035;-74
2022/07/04 07:49:50;;;;;;;8.27;4.13;;;;;;;44.13;12.20;99300.97;5065442;28;20130;-74
2022/07/04 07:52:17;;;;;;;9.55;3.50;;;;;;;44.24;11.93;99299.81;5072976;28;20064;-74
2022/07/04 07:54:43;;;;;;;9.60;4.03;;;;;;;44.33;11.99;99302.34;5078919;28;20048;-75
2022/07/04 07:57:09;;;;;;;8.13;3.33;;;;;;;45.23;11.09;99306.00;5064850;28;20032;-75
2022/07/04 07:59:35;;;;;;;11.13;4.15;;;;;;;45.89;11.06;99300.56;5056112;28;20141;-75
2022/07/04 08:02:01;;;;;;;8.90;3.75;;;;;;;47.66;9.58;99314.97;5057275;28;20040;-73
2022/07/04 08:04:37;;;;;;;8.60;3.90;;;;;;;48.61;8.90;99306.47;5057312;28;20040;-75
2022/07/04 08:07:08;;;;;;;9.13;3.20;;;;;;;49.04;8.75;99299.16;5059361;28;20044;-75
2022/07/04 08:09:34;;;;;;;9.77;3.42;;;;;;;48.11;9.13;99308.16;5057826;28;20074;-76
2022/07/04 08:12:01;;;;;;;8.80;3.42;;;;;;;47.23;9.80;99286.25;5091216;28;20058;-77
2022/07/04 08:14:27;;;;;;;6.63;3.33;;;;;;;46.56;10.09;99299.72;5074226;28;20491;-75
2022/07/04 08:16:53;;;;;;;7.15;3.55;;;;;;;46.60;9.99;99306.13;5053168;28;20492;-77
2022/07/04 08:19:19;;;;;;;6.13;3.30;;;;;;;47.51;9.63;99306.59;5038731;28;20136;-75
2022/07/04 08:21:46;;;;;;;6.63;3.35;;;;;;;48.77;8.45;99301.88;5071794;28;20056;-76
2022/07/04 08:24:14;;;;;;;;;;;;;;;51.05;7.08;99305.06;5072462;28;20040;-77
2022/07/04 08:26:40;;;;;;;7.85;3.58;;;;;;;51.36;7.06;99306.41;5071285;28;19925;-74
2022/07/04 08:29:19;;;;;;;5.95;3.35;;;;;;;50.19;7.38;99302.22;5021928;28;20066;-75
2022/07/04 08:31:45;;;;;;;7.22;3.22;;;;;;;48.73;8.06;99311.59;5071761;28;20086;-76
2022/07/04 08:34:13;;;;;;;5.95;3.28;;;;;;;48.27;8.68;99305.59;5071725;28;20094;-75
2022/07/04 08:36:39;;;;;;;6.07;3.00;;;;;;;49.79;7.79;99308.97;5070795;28;20052;-75
2022/07/04 08:39:08;;;;;;;8.43;3.15;;;;;;;51.10;6.84;99304.56;5054010;28;20555;-75
2022/07/04 08:41:38;;;;;;;8.15;3.90;;;;;;;53.06;5.27;99310.09;5052991;28;20100;-76
2022/07/04 08:44:06;;;;;;;10.85;2.85;;;;;;;54.34;4.79;99300.66;5079364;28;20051;-74
2022/07/04 08:46:34;;;;;;;5.73;2.70;;;;;;;55.59;4.27;99290.59;5071569;28;20044;-75
2022/07/04 08:49:03;;;;;;;11.85;5.20;;;;;;;55.63;4.14;99296.94;5053556;28;20076;-74
2022/07/04 08:51:38;;;;;;;5.95;3.80;;;;;;;54.34;4.61;99292.13;5053251;28;20105;-75
2022/07/04 08:58:25;;;;;;;10.88;3.25;;;;;;;53.64;5.22;99288.03;5053631;28;20051;-74
2022/07/04 08:59:36;;;;;;;6.10;3.03;;;;;;;56.33;3.48;99284.59;5067669;28;20060;-74
2022/07/04 09:02:02;;;;;;;8.23;2.60;;;;;;;57.80;3.32;99291.09;5069050;28;20044;-74
2022/07/04 09:04:29;;;;;;;5.75;2.65;;;;;;;57.66;3.21;99294.66;5067877;28;20541;-74
2022/07/04 09:06:56;;;;;;;6.22;2.60;;;;;;;56.18;3.68;99284.41;5066565;28;20543;-74
2022/07/04 09:09:22;;;;;;;6.45;2.90;;;;;;;54.15;4.54;99275.28;5069514;28;20058;-74
2022/07/04 09:11:47;;;;;;;11.07;3.20;;;;;;;52.09;5.89;99274.72;5052692;28;20040;-74
2022/07/04 09:14:13;;;;;;;4.70;3.00;;;;;;;52.66;5.28;99261.38;5053598;28;20051;-74
2022/07/04 09:16:39;;;;;;;6.93;3.28;;;;;;;53.41;4.75;99272.88;5052925;28;20139;-74
2022/07/04 09:19:09;;;;;;;9.30;3.35;;;;;;;54.60;4.48;99270.03;5036757;28;20044;-74
2022/07/04 09:21:45;;;;;;;10.18;3.13;;;;;;;56.38;3.51;99271.78;5071047;28;20127;-75
2022/07/04 09:24:11;;;;;;;3.58;2.70;;;;;;;57.93;2.76;99273.72;5035849;28;20036;-76
2022/07/04 09:26:41;;;;;;;4.35;2.63;;;;;;;59.49;2.20;99284.78;5069958;28;20048;-76
2022/07/04 09:29:07;;;;;;;9.77;2.72;;;;;;;60.70;1.01;99280.72;5053109;28;20040;-74
2022/07/04 09:31:32;;;;;;;8.05;2.55;;;;;;;61.31;1.11;99276.34;5070747;28;20047;-74
2022/07/04 09:34:06;;;;;;;5.38;2.45;;;;;;;61.78;0.84;99266.22;5068827;28;20117;-75
2022/07/04 09:36:34;;;;;;;5.00;2.08;;;;;;;61.40;0.89;99272.47;5070626;28;20055;-76
2022/07/04 09:39:14;;;;;;;8.63;2.63;;;;;;;60.76;1.04;99258.59;5069193;28;20504;-74
2022/07/04 09:42:12;;;;;;;5.93;2.50;;;;;;;60.81;0.92;99257.06;5069359;28;20057;-75
2022/07/04 09:44:46;;;;;;;3.13;2.30;;;;;;;61.40;0.81;99267.53;5025005;28;20133;-73
2022/07/04 09:47:30;;;;;;;7.65;2.55;;;;;;;61.13;0.71;99253.69;5067416;28;20044;-74
2022/07/04 09:49:59;;;;;;;5.85;2.25;;;;;;;61.35;0.86;99258.84;5019129;28;20503;-76
2022/07/04 09:52:27;;;;;;;7.47;2.20;;;;;;;61.59;0.86;99262.94;5070250;28;20048;-76
2022/07/04 09:55:00;;;;;;;5.88;2.10;;;;;;;61.74;0.39;99257.81;5070178;28;20036;-76
2022/07/04 09:57:26;;;;;;;6.10;2.17;;;;;;;61.90;0.74;99256.34;5068496;28;20044;-77
2022/07/04 09:59:52;;;;;;;14.93;2.20;;;;;;;61.86;0.90;99255.78;5067898;28;20109;-76
2022/07/04 10:02:18;;;;;;;6.70;2.38;;;;;;;61.58;0.25;99247.00;5036080;28;20485;-76
2022/07/04 10:04:51;;;;;;;7.45;2.50;;;;;;;61.53;0.67;99250.63;5051831;28;20042;-76
2022/07/04 10:07:50;;;;;;;6.13;2.33;;;;;;;61.68;1.01;99248.38;5019251;28;20373;-77
2022/07/04 10:10:33;;;;;;;9.13;2.33;;;;;;;61.39;0.66;99239.28;4992879;28;20475;-77
2022/07/04 10:13:05;;;;;;;4.78;2.20;;;;;;;60.96;1.06;99223.28;5051117;28;20044;-77
2022/07/04 10:15:33;;;;;;;6.47;2.50;;;;;;;61.16;0.96;99226.81;5035286;28;20044;-78
2022/07/04 10:17:59;;;;;;;8.75;2.88;;;;;;;60.90;1.22;99213.78;5051899;28;20056;-77
2022/07/04 10:20:25;;;;;;;6.43;2.50;;;;;;;60.78;0.86;99212.91;5069039;28;20511;-77
2022/07/04 10:22:51;;;;;;;6.32;3.13;;;;;;;59.49;1.39;99208.19;5035758;28;20067;-76
2022/07/04 10:25:18;;;;;;;4.82;2.80;;;;;;;59.74;1.75;99206.72;5068543;28;20097;-76
2022/07/04 10:27:48;;;;;;;5.45;2.60;;;;;;;60.23;1.32;99206.56;5052725;28;20076;-76
2022/07/04 10:30:16;;;;;;;3.55;2.28;;;;;;;60.53;1.37;99188.63;5068128;28;20036;-76
2022/07/04 10:32:47;;;;;;;4.30;2.60;;;;;;;61.04;1.36;99198.53;5060781;28;20052;-75
2022/07/04 10:35:14;;;;;;;14.00;3.15;;;;;;;60.65;1.23;99205.97;5068393;28;20048;-78
2022/07/04 10:38:04;;;;;;;7.10;2.40;;;;;;;58.55;1.78;99203.75;5034871;28;20044;-76
2022/07/04 10:40:49;;;;;;;3.60;3.00;;;;;;;57.61;2.30;99195.25;5069008;28;20089;-76
2022/07/04 10:43:29;;;;;;;4.78;2.70;;;;;;;56.75;2.77;99173.44;5068309;28;20135;-76
2022/07/04 10:46:16;;;;;;;4.47;3.13;;;;;;;55.39;3.61;99187.63;5069164;28;20066;-77
2022/07/04 10:48:51;;;;;;;8.07;3.08;;;;;;;55.47;3.61;99186.06;5041831;28;20576;-75
2022/07/04 10:51:43;;;;;;;8.75;3.08;;;;;;;55.96;3.20;99181.06;5056328;28;20044;-74
2022/07/04 10:54:31;;;;;;;4.40;2.80;;;;;;;57.01;2.68;99178.25;5074413;28;20419;-76
2022/07/04 10:57:09;;;;;;;8.32;2.72;;;;;;;58.10;2.33;99183.31;5072487;28;20389;-76
2022/07/04 10:59:38;;;;;;;4.47;2.55;;;;;;;58.86;2.39;99178.28;5074037;28;20040;-77
2022/07/04 11:02:07;;;;;;;5.35;3.10;;;;;;;58.98;2.33;99174.31;5072274;28;20071;-77
2022/07/04 11:04:51;;;;;;;6.47;3.20;;;;;;;58.78;2.10;99182.81;5072692;28;20450;-77
2022/07/04 11:07:22;;;;;;;5.07;2.55;;;;;;;58.24;2.48;99151.88;5070991;28;20492;-77
2022/07/04 11:10:10;;;;;;;4.78;2.40;;;;;;;57.68;2.17;99163.47;5072748;28;20119;-76
2022/07/04 11:12:55;;;;;;;5.70;2.90;;;;;;;56.01;3.45;99174.75;5054785;28;20110;-77
2022/07/04 11:15:32;;;;;;;8.23;3.20;;;;;;;54.13;4.20;99162.03;5071929;28;20059;-78
2022/07/04 11:18:08;;;;;;;3.30;3.00;;;;;;;52.13;4.75;99150.69;5070273;28;20171;-76
2022/07/04 11:20:36;;;;;;;8.65;3.05;;;;;;;50.75;5.54;99141.22;5071081;28;20056;-78
2022/07/04 11:23:12;;;;;;;7.55;3.15;;;;;;;49.87;6.40;99143.75;5070855;28;20045;-78
2022/07/04 11:25:39;;;;;;;4.43;3.00;;;;;;;49.00;7.18;99146.03;5069503;28;20041;-74
2022/07/04 11:28:20;;;;;;;5.35;3.20;;;;;;;48.51;7.18;99135.44;5072577;28;20048;-77
2022/07/04 11:30:53;;;;;;;5.68;3.40;;;;;;;47.81;7.80;99142.63;5072571;28;20074;-76
2022/07/04 11:33:26;;;;;;;4.22;3.28;;;;;;;47.25;8.09;99135.53;5073696;28;20041;-75
2022/07/04 11:36:05;;;;;;;4.78;3.60;;;;;;;47.09;8.24;99132.38;5057227;28;20415;-75
2022/07/04 11:39:04;;;;;;;6.45;3.88;;;;;;;46.72;8.31;99135.03;5080585;28;20079;-75
2022/07/04 11:47:25;;;;;;;4.55;3.60;;;;;;;46.40;9.08;99117.50;5063607;28;19931;-74
2022/07/04 11:49:58;;;;;;;10.18;3.53;;;;;;;46.17;9.37;99106.78;5056323;28;20055;-76